Time;durP1;ratioP1;P1;durP2;ratioP2;P2;SDS_P1;SDS_P2;PMS_P1;PMS_P2;Temp;Humidity;BMP_temperature;BMP_pressure;BME280_temperature;BME280_humidity;BME280_pressure;Samples;Min_cycle;Max_cycle;Signal;HPM_P1;HPM_P2
2024/04/07 00:00:26;;;;;;;2.20;1.30;;;;;;;18.87;33.47;95149.94;5008584;28;20438;-73
2024/04/07 00:02:52;;;;;;;3.05;1.33;;;;;;;18.90;33.99;95159.31;5026909;28;20021;-72
2024/04/07 00:05:18;;;;;;;2.28;1.30;;;;;;;18.86;33.93;95167.09;5025019;28;20076;-74
2024/04/07 00:07:43;;;;;;;4.47;1.58;;;;;;;18.81;33.98;95163.78;5026297;28;20029;-73
2024/04/07 00:10:09;;;;;;;1.77;1.20;;;;;;;18.80;33.84;95167.78;5008199;28;20044;-73
2024/04/07 00:12:35;;;;;;;3.03;1.30;;;;;;;18.84;34.08;95156.47;5025530;28;20415;-73
2024/04/07 00:15:01;;;;;;;4.20;1.50;;;;;;;18.90;33.83;95167.66;5026343;28;20027;-72
2024/04/07 00:17:26;;;;;;;3.75;1.20;;;;;;;18.92;34.01;95165.91;5008592;28;20025;-73
2024/04/07 00:19:52;;;;;;;3.88;1.20;;;;;;;18.86;33.62;95164.31;5026050;28;20167;-73
2024/04/07 00:22:17;;;;;;;2.92;0.95;;;;;;;18.95;33.39;95164.19;5025909;28;20095;-73
2024/04/07 00:24:44;;;;;;;2.78;1.17;;;;;;;18.83;33.81;95161.25;5009501;28;20512;-73
2024/04/07 00:27:09;;;;;;;2.38;0.98;;;;;;;18.91;33.67;95166.41;5026005;28;20549;-73
2024/04/07 00:29:34;;;;;;;3.25;1.00;;;;;;;18.85;34.04;95166.34;5025984;28;20104;-72
2024/04/07 00:32:00;;;;;;;2.42;1.20;;;;;;;18.86;33.97;95172.66;5025978;28;20063;-73
2024/04/07 00:34:26;;;;;;;2.63;1.10;;;;;;;18.87;33.66;95165.84;5008064;28;20467;-73
2024/04/07 00:36:51;;;;;;;2.13;1.00;;;;;;;18.87;34.01;95169.41;5009559;28;20041;-73
2024/04/07 00:39:16;;;;;;;2.47;1.08;;;;;;;18.84;34.09;95178.72;5024272;28;20786;-73
2024/04/07 00:41:42;;;;;;;2.28;1.00;;;;;;;18.82;33.73;95175.69;5025794;28;20494;-73
2024/04/07 00:44:08;;;;;;;2.63;1.10;;;;;;;18.90;33.57;95176.03;5024270;28;20056;-73
2024/04/07 00:46:33;;;;;;;1.73;1.00;;;;;;;18.85;33.69;95171.91;5025777;28;20051;-73
2024/04/07 00:48:59;;;;;;;2.45;1.17;;;;;;;18.82;34.26;95175.69;5025085;28;20084;-73
2024/04/07 00:51:25;;;;;;;2.05;1.10;;;;;;;18.82;34.25;95178.47;5024830;28;20026;-73
2024/04/07 00:53:50;;;;;;;1.70;0.90;;;;;;;18.80;34.38;95170.56;5025678;28;20022;-73
2024/04/07 00:56:16;;;;;;;2.42;0.82;;;;;;;18.76;34.51;95170.03;5024042;28;20079;-73
2024/04/07 00:58:42;;;;;;;1.25;0.75;;;;;;;18.76;34.68;95175.59;5026897;28;20087;-73
2024/04/07 01:01:07;;;;;;;2.20;1.13;;;;;;;18.74;34.66;95168.97;5023955;28;20030;-73
2024/04/07 01:03:33;;;;;;;1.80;1.10;;;;;;;18.71;34.71;95173.50;5009221;28;20029;-73
2024/04/07 01:05:58;;;;;;;1.58;0.93;;;;;;;18.72;34.84;95177.06;5007715;28;20068;-73
2024/04/07 01:08:23;;;;;;;3.05;1.20;;;;;;;18.70;35.18;95177.53;5008770;28;20068;-72
2024/04/07 01:10:50;;;;;;;2.03;1.05;;;;;;;18.69;35.31;95172.44;5025166;28;20025;-73
2024/04/07 01:13:15;;;;;;;2.92;1.27;;;;;;;18.69;35.90;95178.78;5007416;28;20528;-72
2024/04/07 01:15:41;;;;;;;2.92;1.33;;;;;;;18.67;36.05;95167.34;5025608;28;20029;-73
2024/04/07 01:18:06;;;;;;;4.05;1.17;;;;;;;18.65;36.49;95167.06;5023498;28;20472;-73
2024/04/07 01:20:34;;;;;;;1.98;1.10;;;;;;;18.67;36.62;95180.50;5025065;28;20014;-72
2024/04/07 01:23:03;;;;;;;1.88;1.17;;;;;;;18.59;36.71;95163.44;5023622;28;20038;-73
2024/04/07 01:25:28;;;;;;;3.25;1.00;;;;;;;18.57;37.07;95171.47;5026343;28;20072;-72
2024/04/07 01:28:01;;;;;;;2.05;1.35;;;;;;;18.56;37.27;95169.94;5024758;28;20100;-73
2024/04/07 01:30:27;;;;;;;2.65;1.50;;;;;;;18.54;37.80;95175.25;5007782;28;20033;-73
2024/04/07 01:32:52;;;;;;;3.05;1.70;;;;;;;18.56;37.86;95170.72;5025228;28;20099;-74
2024/04/07 01:35:18;;;;;;;2.80;1.30;;;;;;;18.48;38.05;95164.03;5006912;28;20037;-73
2024/04/07 01:37:44;;;;;;;3.05;1.60;;;;;;;18.50;38.37;95178.22;5025004;28;20504;-74
2024/04/07 01:40:10;;;;;;;3.45;1.38;;;;;;;18.53;38.32;95166.13;5023555;28;20032;-73
2024/04/07 01:42:36;;;;;;;4.15;1.50;;;;;;;18.52;38.66;95169.38;5025833;28;20483;-74
2024/04/07 01:45:02;;;;;;;3.55;1.60;;;;;;;18.50;38.59;95164.28;5023927;28;20116;-73
2024/04/07 01:47:27;;;;;;;3.38;1.13;;;;;;;18.45;38.94;95176.09;5024031;28;20040;-73
2024/04/07 01:49:53;;;;;;;2.83;1.60;;;;;;;18.34;39.54;95167.59;5008243;28;20030;-73
2024/04/07 01:52:18;;;;;;;2.55;1.58;;;;;;;18.27;39.52;95170.78;5023385;28;20420;-74
2024/04/07 01:54:44;;;;;;;4.65;1.80;;;;;;;18.30;39.53;95173.38;5026195;28;20014;-73
2024/04/07 01:57:10;;;;;;;3.28;1.98;;;;;;;18.29;39.86;95180.19;5006764;28;20025;-72
2024/04/07 01:59:35;;;;;;;4.68;1.75;;;;;;;18.36;39.84;95172.69;5008523;28;20026;-72
2024/04/07 02:02:00;;;;;;;4.25;1.90;;;;;;;18.29;40.07;95174.63;5024717;28;20025;-74
2024/04/07 02:04:29;;;;;;;3.65;1.60;;;;;;;18.26;40.47;95181.13;5008036;28;20033;-73
2024/04/07 02:06:55;;;;;;;5.75;2.00;;;;;;;18.22;40.52;95183.34;5024760;28;20044;-73
2024/04/07 02:09:20;;;;;;;4.32;2.15;;;;;;;18.14;40.88;95179.44;5007151;28;20048;-73
2024/04/07 02:11:49;;;;;;;5.22;2.15;;;;;;;18.24;40.68;95183.66;5008342;28;20507;-73
2024/04/07 02:14:14;;;;;;;3.60;2.10;;;;;;;18.24;40.84;95188.44;5024251;28;20381;-73
2024/04/07 02:16:40;;;;;;;3.75;1.75;;;;;;;18.19;41.16;95189.13;5026569;28;20045;-73
2024/04/07 02:19:06;;;;;;;3.78;1.90;;;;;;;18.11;41.08;95187.94;5023148;28;20026;-73
2024/04/07 02:21:32;;;;;;;6.32;1.92;;;;;;;18.09;41.24;95182.13;5007705;28;20029;-74
2024/04/07 02:23:57;;;;;;;4.15;2.10;;;;;;;18.07;41.27;95187.41;5023849;28;20286;-74
2024/04/07 02:26:22;;;;;;;4.35;1.92;;;;;;;17.97;41.24;95186.72;5024915;28;20451;-72
2024/04/07 02:28:48;;;;;;;4.82;2.50;;;;;;;18.02;41.46;95184.03;5024548;28;20082;-72
2024/04/07 02:31:13;;;;;;;8.20;2.00;;;;;;;18.05;41.59;95187.84;5022879;28;20049;-73
2024/04/07 02:33:39;;;;;;;4.13;2.05;;;;;;;17.98;41.48;95189.00;5029102;28;20455;-73
2024/04/07 02:36:06;;;;;;;5.18;1.95;;;;;;;17.97;41.22;95190.25;5026482;28;20029;-73
2024/04/07 02:38:31;;;;;;;3.67;2.15;;;;;;;18.00;41.42;95194.84;5028236;28;20121;-72
2024/04/07 02:40:57;;;;;;;6.90;2.33;;;;;;;18.09;41.69;95185.66;5026892;28;20100;-72
2024/04/07 02:43:23;;;;;;;4.60;2.53;;;;;;;18.04;41.41;95186.31;5027376;28;20052;-72
2024/04/07 02:48:32;;;;;;;6.13;2.40;;;;;;;17.95;41.57;95173.31;5026614;28;20036;-72
2024/04/07 02:50:57;;;;;;;5.97;2.53;;;;;;;17.88;41.65;95162.53;5028134;28;20021;-73
2024/04/07 02:53:24;;;;;;;4.78;2.35;;;;;;;17.98;41.27;95174.34;5026203;28;20104;-72
2024/04/07 02:55:49;;;;;;;4.57;2.13;;;;;;;17.91;41.25;95174.72;5027936;28;20026;-73
2024/04/07 02:58:14;;;;;;;4.07;2.40;;;;;;;17.91;41.57;95171.94;5029441;28;20048;-73
2024/04/07 03:00:40;;;;;;;3.35;2.17;;;;;;;17.88;41.78;95175.69;5028625;28;20501;-73
2024/04/07 03:03:05;;;;;;;4.32;2.08;;;;;;;17.88;41.81;95189.56;5027549;28;20029;-73
2024/04/07 03:05:30;;;;;;;4.22;2.40;;;;;;;17.87;41.52;95188.81;5027584;28;20026;-73
2024/04/07 03:07:56;;;;;;;5.13;2.40;;;;;;;17.90;41.69;95195.44;5011166;28;20046;-72
2024/04/07 03:10:21;;;;;;;4.63;2.75;;;;;;;17.88;42.07;95195.16;5025912;28;20388;-72
2024/04/07 03:12:47;;;;;;;8.65;2.88;;;;;;;17.86;41.66;95197.66;5011289;28;20129;-73
2024/04/07 03:15:13;;;;;;;5.28;2.30;;;;;;;17.87;41.77;95204.72;5026020;28;20025;-73
2024/04/07 03:17:38;;;;;;;6.05;2.45;;;;;;;17.86;41.95;95198.41;5028791;28;20067;-73
2024/04/07 03:20:05;;;;;;;5.93;2.53;;;;;;;17.88;42.09;95198.69;5026980;28;20037;-73
2024/04/07 03:22:30;;;;;;;5.28;2.63;;;;;;;17.83;41.97;95193.78;5025786;28;20120;-73
2024/04/07 03:24:56;;;;;;;4.00;2.30;;;;;;;17.75;42.28;95192.66;5027207;28;20136;-72
2024/04/07 03:27:21;;;;;;;6.32;2.75;;;;;;;17.72;42.33;95199.94;5009135;28;20033;-74
2024/04/07 03:29:46;;;;;;;6.10;2.60;;;;;;;17.73;42.44;95195.16;5028911;28;20124;-73
2024/04/07 03:32:12;;;;;;;5.20;2.55;;;;;;;17.69;42.54;95189.72;5025271;28;20025;-73
2024/04/07 03:34:37;;;;;;;4.22;2.13;;;;;;;17.81;42.50;95196.28;5028710;28;20112;-73
2024/04/07 03:37:06;;;;;;;4.00;2.40;;;;;;;17.80;42.35;95199.56;5026100;28;20385;-73
2024/04/07 03:39:32;;;;;;;4.63;2.30;;;;;;;17.73;42.39;95198.69;5042525;28;20051;-72
2024/04/07 03:41:58;;;;;;;4.90;2.20;;;;;;;17.71;42.71;95203.91;5026915;28;20104;-73
2024/04/07 03:44:23;;;;;;;4.35;2.42;;;;;;;17.69;42.62;95205.66;5008365;28;20059;-72
2024/04/07 03:46:48;;;;;;;3.97;2.17;;;;;;;17.61;42.84;95202.47;5027348;28;20021;-72
2024/04/07 03:49:14;;;;;;;5.28;2.72;;;;;;;17.59;42.97;95206.97;5026232;28;20048;-73
2024/04/07 03:51:40;;;;;;;5.18;2.55;;;;;;;17.61;42.87;95212.84;5010701;28;20125;-72
2024/04/07 03:54:06;;;;;;;6.35;2.40;;;;;;;17.55;42.98;95217.50;5025083;28;20478;-72
2024/04/07 03:56:32;;;;;;;6.53;2.40;;;;;;;17.57;43.29;95221.34;5026549;28;20064;-72
2024/04/07 03:58:58;;;;;;;6.60;2.40;;;;;;;17.51;43.19;95228.81;5027921;28;20026;-73
2024/04/07 04:01:23;;;;;;;4.45;2.13;;;;;;;17.55;43.10;95229.41;5008736;28;20090;-72
2024/04/07 04:03:48;;;;;;;6.07;2.85;;;;;;;17.55;43.11;95231.38;5010037;28;20030;-72
2024/04/07 04:06:14;;;;;;;7.43;3.13;;;;;;;17.54;43.45;95230.63;5024497;28;20029;-73
2024/04/07 04:08:40;;;;;;;5.60;2.70;;;;;;;17.55;43.39;95234.16;5026947;28;20034;-72
2024/04/07 04:11:06;;;;;;;7.22;2.60;;;;;;;17.53;43.38;95240.97;5025627;28;20474;-73
2024/04/07 04:13:34;;;;;;;11.75;4.00;;;;;;;17.54;43.30;95238.97;5026465;28;20044;-73
2024/04/07 04:16:00;;;;;;;9.45;2.47;;;;;;;17.59;43.14;95246.66;5009147;28;20029;-73
2024/04/07 04:18:25;;;;;;;5.90;2.70;;;;;;;17.53;43.37;95235.41;5025571;28;20511;-73
2024/04/07 04:20:51;;;;;;;4.80;2.25;;;;;;;17.49;43.50;95229.28;5025913;28;20048;-73
2024/04/07 04:23:16;;;;;;;5.90;2.20;;;;;;;17.49;43.32;95243.19;5008020;28;20498;-72
2024/04/07 04:25:53;;;;;;;4.07;2.17;;;;;;;17.53;43.43;95248.53;5026503;28;20034;-72
2024/04/07 04:28:19;;;;;;;4.07;2.50;;;;;;;17.51;43.70;95240.69;5024656;28;20044;-74
2024/04/07 04:30:55;;;;;;;11.52;2.88;;;;;;;17.45;43.63;95250.94;5026300;28;20021;-73
2024/04/07 04:33:25;;;;;;;4.53;2.33;;;;;;;17.48;43.87;95246.41;5009193;28;20673;-73
2024/04/07 04:35:50;;;;;;;5.65;2.55;;;;;;;17.46;43.70;95249.69;5024780;28;20033;-73
2024/04/07 04:38:16;;;;;;;4.57;2.80;;;;;;;17.48;43.79;95249.19;5025474;28;20076;-73
2024/04/07 04:40:54;;;;;;;3.95;2.55;;;;;;;17.46;43.64;95258.03;5024248;28;20025;-72
2024/04/07 04:43:20;;;;;;;5.55;2.63;;;;;;;17.45;43.92;95258.50;5025679;28;20075;-72
2024/04/07 04:45:48;;;;;;;4.93;2.88;;;;;;;17.44;43.68;95256.97;5024486;28;20033;-72
2024/04/07 04:48:13;;;;;;;7.40;2.63;;;;;;;17.45;43.86;95253.72;5025249;28;20029;-72
2024/04/07 04:50:38;;;;;;;4.72;2.38;;;;;;;17.42;44.04;95251.09;5025537;28;20388;-73
2024/04/07 04:53:04;;;;;;;7.32;3.55;;;;;;;17.43;43.86;95247.06;5025551;28;20055;-73
2024/04/07 04:55:32;;;;;;;6.00;2.90;;;;;;;17.48;43.86;95247.19;5025128;28;20032;-73
2024/04/07 04:57:58;;;;;;;4.70;2.50;;;;;;;17.50;43.82;95253.06;5023660;28;20025;-73
2024/04/07 05:00:26;;;;;;;5.00;2.25;;;;;;;17.52;43.69;95247.78;5025625;28;20025;-73
2024/04/07 05:02:52;;;;;;;5.95;3.05;;;;;;;17.57;43.71;95256.72;5024092;28;20196;-72
2024/04/07 05:05:18;;;;;;;4.22;2.40;;;;;;;17.57;43.79;95254.69;5026847;28;20129;-72
2024/04/07 05:07:43;;;;;;;4.63;2.35;;;;;;;17.60;43.92;95267.63;5024798;28;20112;-71
2024/04/07 05:10:09;;;;;;;6.88;2.55;;;;;;;17.61;43.75;95257.31;5025722;28;20052;-72
2024/04/07 05:12:34;;;;;;;3.88;2.20;;;;;;;17.77;43.55;95265.97;5026835;28;20087;-72
2024/04/07 05:14:59;;;;;;;6.93;2.80;;;;;;;17.77;43.53;95265.97;5024551;28;20119;-71
2024/04/07 05:17:25;;;;;;;3.95;2.13;;;;;;;17.85;43.35;95257.28;5024601;28;20449;-73
2024/04/07 05:19:51;;;;;;;4.22;2.28;;;;;;;17.77;43.44;95257.63;5007039;28;20117;-72
2024/04/07 05:22:16;;;;;;;4.18;2.45;;;;;;;17.76;43.68;95247.78;5008944;28;20432;-73
2024/04/07 05:24:42;;;;;;;3.90;2.58;;;;;;;17.83;43.37;95254.19;5025834;28;20052;-72
2024/04/07 05:27:07;;;;;;;4.72;2.33;;;;;;;17.66;43.28;95220.50;5024813;28;20029;-72
2024/04/07 05:29:32;;;;;;;4.05;2.53;;;;;;;17.88;43.23;95256.31;5025137;28;20024;-71
2024/04/07 05:31:58;;;;;;;3.40;2.35;;;;;;;17.94;43.08;95259.97;5023566;28;20071;-72
2024/04/07 05:34:26;;;;;;;5.07;2.30;;;;;;;17.93;43.14;95259.22;5025259;28;20029;-72
2024/04/07 05:36:51;;;;;;;3.55;2.40;;;;;;;17.94;43.29;95255.19;5023386;28;20034;-73
2024/04/07 05:39:17;;;;;;;3.13;2.20;;;;;;;18.03;42.90;95254.34;5024896;28;20108;-73
2024/04/07 05:41:42;;;;;;;4.30;2.05;;;;;;;18.06;43.14;95258.94;5006916;28;20121;-72
2024/04/07 05:44:07;;;;;;;5.85;2.33;;;;;;;18.12;43.17;95259.03;5025988;28;20064;-73
2024/04/07 05:46:33;;;;;;;6.60;2.20;;;;;;;18.11;43.37;95263.06;5024214;28;20017;-72
2024/04/07 05:48:58;;;;;;;3.67;2.05;;;;;;;18.05;43.51;95258.16;5023893;28;20128;-72
2024/04/07 05:51:23;;;;;;;4.07;2.00;;;;;;;18.04;43.58;95264.22;5025011;28;20503;-73
2024/04/07 05:53:49;;;;;;;5.50;2.33;;;;;;;18.06;43.67;95258.94;5006647;28;20150;-72
2024/04/07 05:56:14;;;;;;;5.95;1.88;;;;;;;18.11;43.29;95251.94;5008369;28;20057;-73
2024/04/07 05:58:40;;;;;;;5.05;2.03;;;;;;;18.19;43.22;95250.31;5023165;28;20400;-73
2024/04/07 06:01:08;;;;;;;3.55;2.10;;;;;;;18.30;42.96;95259.63;5024795;28;20112;-72
2024/04/07 06:03:34;;;;;;;3.63;2.40;;;;;;;18.34;42.76;95258.66;5024919;28;20021;-72
2024/04/07 06:06:01;;;;;;;5.28;1.77;;;;;;;18.47;42.40;95256.38;5024227;28;20031;-73
2024/04/07 06:08:27;;;;;;;3.45;1.30;;;;;;;18.49;41.67;95257.41;5012191;28;20057;-73
2024/04/07 06:10:52;;;;;;;5.85;1.75;;;;;;;18.47;41.00;95259.91;5027179;28;20489;-71
2024/04/07 06:13:17;;;;;;;5.80;1.65;;;;;;;18.56;40.38;95254.22;5028794;28;20022;-73
2024/04/07 06:15:43;;;;;;;3.28;1.60;;;;;;;18.60;40.34;95248.47;5010443;28;20105;-73
2024/04/07 06:18:09;;;;;;;2.92;1.63;;;;;;;18.64;39.96;95251.84;5030383;28;20120;-72
2024/04/07 06:20:34;;;;;;;6.07;2.08;;;;;;;18.69;39.18;95250.41;5026967;28;20462;-73
2024/04/07 06:22:59;;;;;;;6.20;1.77;;;;;;;18.63;39.07;95241.94;5028039;28;20035;-72
2024/04/07 06:25:25;;;;;;;3.30;1.23;;;;;;;18.73;39.56;95248.97;5029361;28;20546;-72
2024/04/07 06:27:50;;;;;;;2.13;1.23;;;;;;;18.75;39.71;95246.47;5011041;28;20064;-72
2024/04/07 06:30:16;;;;;;;3.72;1.40;;;;;;;18.83;39.20;95239.25;5028132;28;20025;-73
2024/04/07 06:32:41;;;;;;;3.00;1.88;;;;;;;18.95;39.20;95247.75;5026640;28;20472;-73
2024/04/07 06:35:06;;;;;;;3.60;1.42;;;;;;;18.97;39.09;95240.44;5028726;28;20034;-71
2024/04/07 06:37:32;;;;;;;2.05;1.08;;;;;;;19.13;39.12;95249.53;5026436;28;20404;-72
2024/04/07 06:39:57;;;;;;;2.88;1.60;;;;;;;19.19;39.05;95256.72;5030718;28;20032;-72
2024/04/07 06:42:30;;;;;;;3.53;1.60;;;;;;;19.32;38.58;95262.72;5010738;28;20029;-73
2024/04/07 06:44:57;;;;;;;5.15;1.58;;;;;;;19.33;38.59;95249.56;5011512;28;20418;-72
2024/04/07 06:47:23;;;;;;;3.08;1.30;;;;;;;19.41;38.50;95258.28;5011729;28;20529;-73
2024/04/07 06:49:53;;;;;;;2.35;1.45;;;;;;;19.46;38.46;95261.13;5026560;28;20542;-72
2024/04/07 06:52:22;;;;;;;2.72;1.10;;;;;;;19.53;38.32;95271.09;5011649;28;20048;-71
2024/04/07 06:54:47;;;;;;;2.88;1.20;;;;;;;19.54;38.00;95251.09;5026206;28;20128;-72
2024/04/07 06:57:14;;;;;;;2.88;1.65;;;;;;;19.57;38.17;95271.66;5027913;28;20732;-71
2024/04/07 06:59:39;;;;;;;4.05;1.50;;;;;;;19.64;37.59;95271.25;5010094;28;20033;-72
2024/04/07 07:02:05;;;;;;;2.65;1.20;;;;;;;19.66;37.78;95267.97;5027329;28;20032;-72
2024/04/07 07:04:31;;;;;;;3.22;1.20;;;;;;;19.76;37.52;95266.59;5027710;28;20029;-72
2024/04/07 07:06:57;;;;;;;3.47;1.20;;;;;;;19.86;37.82;95265.94;5027636;28;20464;-72
2024/04/07 07:09:22;;;;;;;4.80;1.90;;;;;;;20.00;37.67;95272.69;5011171;28;20022;-78
2024/04/07 07:11:49;;;;;;;2.60;1.48;;;;;;;20.12;37.39;95282.72;5009841;28;20464;-85
2024/04/07 07:14:15;;;;;;;3.63;1.55;;;;;;;20.18;37.44;95274.41;5027585;28;20037;-72
2024/04/07 07:16:40;;;;;;;3.88;1.60;;;;;;;20.33;37.24;95280.66;5026259;28;20388;-73
2024/04/07 07:19:06;;;;;;;2.25;1.25;;;;;;;20.40;37.12;95280.19;5027820;28;20042;-72
2024/04/07 07:21:31;;;;;;;3.70;1.45;;;;;;;20.47;36.71;95281.03;5026703;28;20025;-73
2024/04/07 07:23:56;;;;;;;2.83;1.35;;;;;;;20.53;36.38;95279.06;5026510;28;20025;-73
2024/04/07 07:26:22;;;;;;;2.88;1.00;;;;;;;20.57;35.61;95276.81;5027149;28;20504;-74
2024/04/07 07:28:48;;;;;;;2.72;1.15;;;;;;;20.68;35.34;95283.28;5025438;28;20112;-74
2024/04/07 07:31:13;;;;;;;3.20;1.30;;;;;;;20.74;35.33;95280.53;5010549;28;20025;-74
2024/04/07 07:33:40;;;;;;;2.55;1.50;;;;;;;20.84;34.76;95284.69;5025720;28;20029;-74
2024/04/07 07:36:05;;;;;;;3.38;1.08;;;;;;;21.00;34.72;95285.31;5028644;28;20140;-74
2024/04/07 07:38:31;;;;;;;3.47;1.40;;;;;;;21.11;34.23;95280.56;5025736;28;20517;-73
2024/04/07 07:40:56;;;;;;;3.67;1.40;;;;;;;21.23;34.24;95278.59;5026880;28;20083;-75
2024/04/07 07:43:21;;;;;;;2.83;1.25;;;;;;;21.39;34.18;95283.56;5026609;28;20021;-73
2024/04/07 07:45:47;;;;;;;3.08;1.30;;;;;;;21.45;34.17;95287.16;5009312;28;20124;-74
2024/04/07 07:48:13;;;;;;;1.42;0.80;;;;;;;21.52;33.52;95283.09;5026927;28;20036;-73
2024/04/07 07:50:44;;;;;;;1.50;1.00;;;;;;;21.54;33.18;95277.78;5025193;28;20018;-72
2024/04/07 07:53:09;;;;;;;6.97;1.20;;;;;;;21.54;33.57;95280.56;5029099;28;20487;-72
2024/04/07 07:55:36;;;;;;;2.88;1.10;;;;;;;21.53;33.93;95286.66;5009635;28;20037;-73
2024/04/07 07:58:02;;;;;;;3.80;1.17;;;;;;;21.58;33.43;95288.72;5026817;28;20029;-75
2024/04/07 08:00:28;;;;;;;2.10;1.05;;;;;;;21.60;33.46;95286.94;5026331;28;20021;-74
2024/04/07 08:02:53;;;;;;;3.58;1.10;;;;;;;21.53;33.65;95284.63;5026973;28;20021;-74
2024/04/07 08:05:19;;;;;;;2.67;1.30;;;;;;;21.58;33.71;95291.53;5026298;28;20048;-74
2024/04/07 08:07:44;;;;;;;3.03;0.90;;;;;;;21.65;33.92;95289.00;5024844;28;20060;-73
2024/04/07 08:10:10;;;;;;;4.25;0.90;;;;;;;21.73;33.46;95300.47;5010038;28;20411;-76
2024/04/07 08:12:38;;;;;;;2.83;1.67;;;;;;;21.69;33.50;95299.97;5007836;28;20480;-73
2024/04/07 08:15:05;;;;;;;1.73;1.17;;;;;;;21.67;33.77;95302.50;5027737;28;20022;-74
2024/04/07 08:17:30;;;;;;;2.42;1.55;;;;;;;21.64;33.38;95295.13;5026767;28;20025;-74
2024/04/07 08:19:56;;;;;;;2.63;0.90;;;;;;;21.62;33.24;95292.84;5026930;28;20024;-74
2024/04/07 08:22:21;;;;;;;3.38;1.50;;;;;;;21.58;33.60;95295.09;5009063;28;20451;-74
2024/04/07 08:24:46;;;;;;;2.53;1.05;;;;;;;21.38;33.49;95301.56;5024429;28;20141;-74
2024/04/07 08:27:12;;;;;;;2.10;1.13;;;;;;;21.17;34.54;95300.16;5009645;28;20116;-73
2024/04/07 08:29:38;;;;;;;1.63;0.90;;;;;;;21.18;34.84;95296.09;5023928;28;20026;-73
2024/04/07 08:32:04;;;;;;;1.50;1.00;;;;;;;20.94;34.95;95294.41;5026024;28;20113;-74
2024/04/07 08:34:29;;;;;;;2.80;0.90;;;;;;;20.79;35.23;95293.78;5024777;28;20040;-74
2024/04/07 08:36:54;;;;;;;2.83;0.95;;;;;;;20.83;35.47;95297.13;5009530;28;20033;-73
2024/04/07 08:39:20;;;;;;;1.33;0.90;;;;;;;20.78;35.34;95303.41;5024977;28;20384;-75
2024/04/07 08:41:46;;;;;;;2.10;1.23;;;;;;;20.88;35.91;95302.00;5026345;28;20049;-74
2024/04/07 08:44:13;;;;;;;2.97;1.13;;;;;;;20.95;36.64;95307.13;5026856;28;20055;-73
2024/04/07 08:46:43;;;;;;;2.47;1.30;;;;;;;21.10;36.28;95306.19;5007620;28;20526;-74
2024/04/07 08:49:08;;;;;;;2.28;1.10;;;;;;;21.24;35.27;95310.13;5009031;28;20034;-73
2024/04/07 08:51:36;;;;;;;5.00;2.35;;;;;;;21.34;34.97;95312.25;5007935;28;20095;-75
2024/04/07 08:54:03;;;;;;;3.70;1.38;;;;;;;21.47;34.58;95315.38;5025557;28;20021;-75
2024/04/07 08:56:29;;;;;;;2.50;0.82;;;;;;;21.48;33.95;95318.94;5008291;28;20087;-74
2024/04/07 08:58:56;;;;;;;3.97;1.50;;;;;;;21.59;34.09;95309.84;5008051;28;20033;-75
2024/04/07 09:01:26;;;;;;;7.90;1.90;;;;;;;21.77;33.88;95294.66;5008955;28;20041;-74
2024/04/07 09:03:52;;;;;;;1.33;0.90;;;;;;;21.94;33.45;95307.44;5025191;28;20029;-75
2024/04/07 09:06:18;;;;;;;1.85;0.98;;;;;;;22.06;33.23;95302.66;5025448;28;20026;-73
2024/04/07 09:08:44;;;;;;;3.72;1.40;;;;;;;22.11;33.57;95301.94;5027259;28;20104;-73
2024/04/07 09:11:10;;;;;;;2.00;0.93;;;;;;;22.22;32.99;95304.00;5009102;28;20128;-74
2024/04/07 09:13:36;;;;;;;2.17;1.05;;;;;;;22.18;32.56;95292.28;5025798;28;20096;-74
2024/04/07 09:16:02;;;;;;;2.75;1.33;;;;;;;22.21;32.87;95306.06;5008058;28;20032;-75
2024/04/07 09:18:29;;;;;;;4.75;1.83;;;;;;;22.23;32.63;95302.75;5025220;28;20079;-74
2024/04/07 09:20:54;;;;;;;3.03;1.30;;;;;;;22.26;32.29;95302.50;5023386;28;20022;-74
2024/04/07 09:23:22;;;;;;;5.30;1.77;;;;;;;22.26;32.29;95304.53;5025078;28;20032;-75
2024/04/07 09:25:50;;;;;;;4.32;2.08;;;;;;;22.29;32.50;95308.34;5023406;28;20057;-75
2024/04/07 09:28:16;;;;;;;3.50;1.48;;;;;;;22.29;32.12;95306.31;5025207;28;20025;-74
2024/04/07 09:30:43;;;;;;;3.47;1.90;;;;;;;22.29;32.31;95311.91;5007505;28;20025;-73
2024/04/07 09:33:08;;;;;;;1.55;1.20;;;;;;;22.27;31.90;95312.44;5008274;28;20055;-74
2024/04/07 09:35:34;;;;;;;2.58;0.90;;;;;;;22.30;31.68;95310.63;5026138;28;20075;-73
2024/04/07 09:37:59;;;;;;;3.95;2.10;;;;;;;22.30;31.67;95321.06;5006835;28;20493;-73
2024/04/07 09:40:25;;;;;;;4.15;1.90;;;;;;;22.38;30.91;95305.31;5024798;28;20033;-73
2024/04/07 09:42:52;;;;;;;9.43;3.47;;;;;;;22.38;30.56;95316.53;5022855;28;20038;-73
2024/04/07 09:45:20;;;;;;;7.45;3.85;;;;;;;22.42;31.19;95311.44;5025128;28;20029;-74
2024/04/07 09:47:48;;;;;;;6.38;2.55;;;;;;;22.66;30.71;95311.75;5023274;28;20032;-73
2024/04/07 09:50:29;;;;;;;4.90;1.60;;;;;;;23.12;30.08;95312.53;5024784;28;20084;-73
2024/04/07 09:52:58;;;;;;;2.65;1.30;;;;;;;23.07;30.10;95318.91;5026246;28;20527;-73
2024/04/07 09:55:24;;;;;;;2.70;1.40;;;;;;;23.04;29.53;95321.44;5023159;28;20190;-73
2024/04/07 09:57:49;;;;;;;7.95;3.13;;;;;;;23.23;30.24;95321.72;5025185;28;20499;-74
2024/04/07 10:00:15;;;;;;;8.07;2.28;;;;;;;23.76;30.12;95324.69;5006194;28;20080;-75
2024/04/07 10:02:40;;;;;;;4.63;1.73;;;;;;;24.06;29.60;95330.44;5026292;28;20033;-74
2024/04/07 10:05:06;;;;;;;5.57;1.70;;;;;;;24.11;29.41;95336.03;5006676;28;20021;-75
2024/04/07 10:07:32;;;;;;;6.07;1.73;;;;;;;24.47;28.16;95336.16;5008170;28;20267;-73
2024/04/07 10:09:58;;;;;;;3.85;1.50;;;;;;;24.95;27.80;95331.25;5024503;28;20156;-74
2024/04/07 10:12:31;;;;;;;4.05;1.55;;;;;;;25.20;27.15;95332.09;5023042;28;20112;-74
2024/04/07 10:14:58;;;;;;;3.38;1.40;;;;;;;25.72;26.76;95333.91;5024603;28;20034;-74
2024/04/07 10:17:25;;;;;;;3.45;1.20;;;;;;;26.10;26.67;95329.91;5022645;28;20033;-75
2024/04/07 10:19:54;;;;;;;3.22;1.23;;;;;;;26.08;26.27;95340.94;5008443;28;20021;-73
2024/04/07 10:22:21;;;;;;;3.30;1.20;;;;;;;26.21;26.17;95338.22;5006097;28;20131;-73
2024/04/07 10:24:48;;;;;;;2.03;1.00;;;;;;;26.42;25.71;95341.31;5017437;28;20040;-74
2024/04/07 10:27:13;;;;;;;4.25;1.25;;;;;;;26.48;25.39;95342.00;5024427;28;20499;-74
2024/04/07 10:29:39;;;;;;;3.28;1.50;;;;;;;26.86;25.19;95353.25;5006894;28;20022;-75
2024/04/07 10:32:28;;;;;;;3.30;1.98;;;;;;;26.75;24.99;95344.97;5024887;28;20026;-75
2024/04/07 10:35:07;;;;;;;2.45;1.20;;;;;;;26.70;25.39;95348.63;5022749;28;20036;-75
2024/04/07 10:37:38;;;;;;;1.70;1.10;;;;;;;26.87;24.96;95351.97;5024145;28;20421;-74
2024/04/07 10:40:08;;;;;;;4.25;1.33;;;;;;;26.64;25.34;95359.22;5023959;28;20480;-73
2024/04/07 10:42:34;;;;;;;3.92;1.77;;;;;;;26.73;26.14;95370.13;5007184;28;20018;-74
2024/04/07 10:45:03;;;;;;;3.65;1.00;;;;;;;26.55;26.30;95359.59;5008304;28;20227;-73
2024/04/07 10:47:32;;;;;;;2.67;1.00;;;;;;;26.34;26.68;95368.56;5004504;28;20056;-75
2024/04/07 10:49:58;;;;;;;2.20;1.02;;;;;;;25.86;27.31;95363.72;5024611;28;20025;-75
2024/04/07 10:52:26;;;;;;;3.30;1.20;;;;;;;26.17;27.21;95363.13;5022579;28;20067;-75
2024/04/07 10:54:56;;;;;;;2.70;1.08;;;;;;;26.30;27.21;95367.31;5011043;28;20114;-73
2024/04/07 10:57:21;;;;;;;2.63;1.50;;;;;;;26.37;27.27;95367.47;5010822;28;20025;-73
2024/04/07 10:59:47;;;;;;;5.28;1.42;;;;;;;25.65;28.31;95369.03;5026664;28;20029;-74
2024/04/07 11:02:13;;;;;;;5.43;1.55;;;;;;;25.37;28.86;95355.22;5027777;28;20619;-74
2024/04/07 11:04:40;;;;;;;6.75;1.63;;;;;;;25.28;29.06;95372.44;5026180;28;20063;-74
2024/04/07 11:07:05;;;;;;;7.03;2.75;;;;;;;25.30;29.23;95379.06;5028298;28;20057;-74
2024/04/07 11:09:31;;;;;;;3.53;1.83;;;;;;;27.00;27.00;95376.63;5025718;28;20065;-74
2024/04/07 11:11:58;;;;;;;4.70;1.75;;;;;;;26.36;27.73;95370.81;5011246;28;20029;-74
2024/04/07 11:14:27;;;;;;;3.75;1.48;;;;;;;26.64;27.35;95376.13;5026387;28;20108;-75
2024/04/07 11:16:54;;;;;;;3.45;1.45;;;;;;;26.52;27.14;95383.97;5026973;28;20028;-74
2024/04/07 11:19:22;;;;;;;4.10;1.38;;;;;;;26.18;27.41;95395.63;5027516;28;20021;-75
2024/04/07 11:21:48;;;;;;;4.30;1.30;;;;;;;25.79;27.75;95389.66;5025344;28;20025;-74
2024/04/07 11:24:14;;;;;;;3.10;1.20;;;;;;;25.46;28.28;95385.06;5027412;28;20030;-74
2024/04/07 11:26:40;;;;;;;2.20;1.15;;;;;;;25.20;28.48;95386.31;5009003;28;20029;-75
2024/04/07 11:29:05;;;;;;;6.68;2.70;;;;;;;24.90;29.05;95383.44;5011035;28;20632;-75
2024/04/07 11:31:30;;;;;;;5.22;2.40;;;;;;;24.71;28.78;95385.31;5009358;28;20030;-75